sensor_id;sensor_type;location;lat;lon;timestamp;P1;durP1;ratioP1;P2;durP2;ratioP2
49237;SDS011;35069;47.906;1.892;2024-01-16T00:01:31;137.48;;;81.50;;
49237;SDS011;35069;47.906;1.892;2024-01-16T00:03:56;144.40;;;82.68;;
49237;SDS011;35069;47.906;1.892;2024-01-16T00:06:22;144.02;;;83.95;;
49237;SDS011;35069;47.906;1.892;2024-01-16T00:08:47;138.13;;;81.70;;
49237;SDS011;35069;47.906;1.892;2024-01-16T00:11:13;156.60;;;89.65;;
49237;SDS011;35069;47.906;1.892;2024-01-16T00:13:38;156.13;;;87.00;;
49237;SDS011;35069;47.906;1.892;2024-01-16T00:16:04;150.20;;;85.78;;
49237;SDS011;35069;47.906;1.892;2024-01-16T00:18:30;140.38;;;81.82;;
49237;SDS011;35069;47.906;1.892;2024-01-16T00:20:55;146.93;;;82.93;;
49237;SDS011;35069;47.906;1.892;2024-01-16T00:23:21;145.23;;;82.47;;
49237;SDS011;35069;47.906;1.892;2024-01-16T00:25:47;149.13;;;84.22;;
49237;SDS011;35069;47.906;1.892;2024-01-16T00:28:12;147.13;;;84.07;;
49237;SDS011;35069;47.906;1.892;2024-01-16T00:30:38;151.40;;;86.60;;
49237;SDS011;35069;47.906;1.892;2024-01-16T00:33:03;149.30;;;88.68;;
49237;SDS011;35069;47.906;1.892;2024-01-16T00:35:29;146.98;;;87.10;;
49237;SDS011;35069;47.906;1.892;2024-01-16T00:37:55;157.70;;;88.00;;
49237;SDS011;35069;47.906;1.892;2024-01-16T00:40:20;161.18;;;89.53;;
49237;SDS011;35069;47.906;1.892;2024-01-16T00:42:46;152.25;;;91.80;;
49237;SDS011;35069;47.906;1.892;2024-01-16T00:45:12;168.02;;;93.40;;
49237;SDS011;35069;47.906;1.892;2024-01-16T00:47:38;167.25;;;97.78;;
49237;SDS011;35069;47.906;1.892;2024-01-16T00:50:03;176.35;;;98.93;;
49237;SDS011;35069;47.906;1.892;2024-01-16T00:52:30;169.98;;;94.78;;
49237;SDS011;35069;47.906;1.892;2024-01-16T00:54:55;177.63;;;101.57;;
49237;SDS011;35069;47.906;1.892;2024-01-16T00:57:21;190.40;;;104.45;;
49237;SDS011;35069;47.906;1.892;2024-01-16T00:59:47;186.40;;;102.78;;
49237;SDS011;35069;47.906;1.892;2024-01-16T01:02:12;177.65;;;99.45;;
49237;SDS011;35069;47.906;1.892;2024-01-16T01:04:39;175.43;;;99.38;;
49237;SDS011;35069;47.906;1.892;2024-01-16T01:07:06;180.10;;;102.45;;
49237;SDS011;35069;47.906;1.892;2024-01-16T01:09:33;193.48;;;105.55;;
49237;SDS011;35069;47.906;1.892;2024-01-16T01:11:59;178.02;;;103.45;;
49237;SDS011;35069;47.906;1.892;2024-01-16T01:14:24;156.73;;;90.18;;
49237;SDS011;35069;47.906;1.892;2024-01-16T01:16:51;172.18;;;98.38;;
49237;SDS011;35069;47.906;1.892;2024-01-16T01:19:17;182.18;;;103.60;;
49237;SDS011;35069;47.906;1.892;2024-01-16T01:21:43;193.45;;;102.85;;
49237;SDS011;35069;47.906;1.892;2024-01-16T01:24:08;175.32;;;100.45;;
49237;SDS011;35069;47.906;1.892;2024-01-16T01:26:34;177.35;;;100.07;;
49237;SDS011;35069;47.906;1.892;2024-01-16T01:29:00;160.57;;;90.10;;
49237;SDS011;35069;47.906;1.892;2024-01-16T01:31:26;162.20;;;90.65;;
49237;SDS011;35069;47.906;1.892;2024-01-16T01:33:52;154.55;;;87.05;;
49237;SDS011;35069;47.906;1.892;2024-01-16T01:36:17;147.88;;;82.47;;
49237;SDS011;35069;47.906;1.892;2024-01-16T01:38:43;141.10;;;80.43;;
49237;SDS011;35069;47.906;1.892;2024-01-16T01:41:08;150.35;;;83.05;;
49237;SDS011;35069;47.906;1.892;2024-01-16T01:43:36;139.23;;;82.38;;
49237;SDS011;35069;47.906;1.892;2024-01-16T01:46:13;133.35;;;71.18;;
49237;SDS011;35069;47.906;1.892;2024-01-16T01:48:43;132.48;;;74.03;;
49237;SDS011;35069;47.906;1.892;2024-01-16T01:51:09;134.85;;;73.75;;
49237;SDS011;35069;47.906;1.892;2024-01-16T01:53:36;138.07;;;75.10;;
49237;SDS011;35069;47.906;1.892;2024-01-16T01:56:04;132.23;;;73.72;;
49237;SDS011;35069;47.906;1.892;2024-01-16T01:58:36;119.32;;;68.95;;
49237;SDS011;35069;47.906;1.892;2024-01-16T02:01:05;113.13;;;63.83;;
49237;SDS011;35069;47.906;1.892;2024-01-16T02:03:41;117.88;;;63.22;;
49237;SDS011;35069;47.906;1.892;2024-01-16T02:06:09;121.43;;;65.53;;
49237;SDS011;35069;47.906;1.892;2024-01-16T02:08:36;114.70;;;62.63;;
49237;SDS011;35069;47.906;1.892;2024-01-16T02:11:02;125.82;;;65.82;;
49237;SDS011;35069;47.906;1.892;2024-01-16T02:13:27;121.13;;;66.80;;
49237;SDS011;35069;47.906;1.892;2024-01-16T02:15:53;129.02;;;68.22;;
49237;SDS011;35069;47.906;1.892;2024-01-16T02:18:19;119.80;;;71.10;;
49237;SDS011;35069;47.906;1.892;2024-01-16T02:20:45;125.95;;;72.32;;
49237;SDS011;35069;47.906;1.892;2024-01-16T02:23:12;133.30;;;75.15;;
49237;SDS011;35069;47.906;1.892;2024-01-16T02:25:40;140.05;;;76.20;;
49237;SDS011;35069;47.906;1.892;2024-01-16T02:28:07;139.15;;;76.20;;
49237;SDS011;35069;47.906;1.892;2024-01-16T02:30:35;133.80;;;75.63;;
49237;SDS011;35069;47.906;1.892;2024-01-16T02:33:01;139.68;;;74.63;;
49237;SDS011;35069;47.906;1.892;2024-01-16T02:35:28;129.13;;;75.18;;
49237;SDS011;35069;47.906;1.892;2024-01-16T02:37:54;127.22;;;71.25;;
49237;SDS011;35069;47.906;1.892;2024-01-16T02:40:19;123.03;;;71.20;;
49237;SDS011;35069;47.906;1.892;2024-01-16T02:42:45;134.75;;;74.53;;
49237;SDS011;35069;47.906;1.892;2024-01-16T02:45:11;107.20;;;58.40;;
49237;SDS011;35069;47.906;1.892;2024-01-16T02:47:37;110.05;;;64.03;;
49237;SDS011;35069;47.906;1.892;2024-01-16T02:50:02;120.15;;;68.18;;
49237;SDS011;35069;47.906;1.892;2024-01-16T02:52:28;116.07;;;68.25;;
49237;SDS011;35069;47.906;1.892;2024-01-16T02:54:53;128.70;;;70.32;;
49237;SDS011;35069;47.906;1.892;2024-01-16T02:57:19;138.65;;;76.47;;
49237;SDS011;35069;47.906;1.892;2024-01-16T02:59:45;131.60;;;73.22;;
49237;SDS011;35069;47.906;1.892;2024-01-16T03:02:10;131.73;;;75.97;;
49237;SDS011;35069;47.906;1.892;2024-01-16T03:04:37;122.22;;;67.25;;
49237;SDS011;35069;47.906;1.892;2024-01-16T03:07:02;118.70;;;66.80;;
49237;SDS011;35069;47.906;1.892;2024-01-16T03:09:28;96.78;;;52.42;;
49237;SDS011;35069;47.906;1.892;2024-01-16T03:11:54;125.18;;;67.10;;
49237;SDS011;35069;47.906;1.892;2024-01-16T03:14:20;113.72;;;63.35;;
49237;SDS011;35069;47.906;1.892;2024-01-16T03:16:45;105.10;;;61.28;;
49237;SDS011;35069;47.906;1.892;2024-01-16T03:19:11;110.47;;;58.60;;
49237;SDS011;35069;47.906;1.892;2024-01-16T03:21:37;67.63;;;37.40;;
49237;SDS011;35069;47.906;1.892;2024-01-16T03:24:04;69.82;;;37.38;;
49237;SDS011;35069;47.906;1.892;2024-01-16T03:26:35;55.13;;;30.77;;
49237;SDS011;35069;47.906;1.892;2024-01-16T03:29:02;48.45;;;29.17;;
49237;SDS011;35069;47.906;1.892;2024-01-16T03:31:28;44.58;;;23.83;;
49237;SDS011;35069;47.906;1.892;2024-01-16T03:33:53;41.72;;;24.73;;
49237;SDS011;35069;47.906;1.892;2024-01-16T03:36:19;35.83;;;21.13;;
49237;SDS011;35069;47.906;1.892;2024-01-16T03:38:44;36.53;;;21.42;;
49237;SDS011;35069;47.906;1.892;2024-01-16T03:41:10;32.22;;;20.60;;
49237;SDS011;35069;47.906;1.892;2024-01-16T03:43:37;31.08;;;19.20;;
49237;SDS011;35069;47.906;1.892;2024-01-16T03:46:02;28.45;;;17.25;;
49237;SDS011;35069;47.906;1.892;2024-01-16T03:48:28;28.60;;;16.45;;
49237;SDS011;35069;47.906;1.892;2024-01-16T03:50:55;31.83;;;16.95;;
49237;SDS011;35069;47.906;1.892;2024-01-16T03:53:21;26.65;;;16.35;;
49237;SDS011;35069;47.906;1.892;2024-01-16T03:55:47;30.33;;;16.33;;
49237;SDS011;35069;47.906;1.892;2024-01-16T03:58:14;30.90;;;18.08;;
49237;SDS011;35069;47.906;1.892;2024-01-16T04:00:40;33.20;;;18.70;;
49237;SDS011;35069;47.906;1.892;2024-01-16T04:03:06;28.65;;;17.65;;
49237;SDS011;35069;47.906;1.892;2024-01-16T04:05:32;28.60;;;17.48;;
49237;SDS011;35069;47.906;1.892;2024-01-16T04:07:58;35.00;;;18.17;;
49237;SDS011;35069;47.906;1.892;2024-01-16T04:10:23;24.13;;;15.25;;
49237;SDS011;35069;47.906;1.892;2024-01-16T04:12:49;26.48;;;16.58;;
49237;SDS011;35069;47.906;1.892;2024-01-16T04:15:14;32.40;;;15.80;;
49237;SDS011;35069;47.906;1.892;2024-01-16T04:17:40;27.38;;;15.50;;
49237;SDS011;35069;47.906;1.892;2024-01-16T04:20:06;25.75;;;14.35;;
49237;SDS011;35069;47.906;1.892;2024-01-16T04:22:32;25.02;;;14.57;;
49237;SDS011;35069;47.906;1.892;2024-01-16T04:24:58;23.63;;;13.88;;
49237;SDS011;35069;47.906;1.892;2024-01-16T04:27:24;26.52;;;15.32;;
49237;SDS011;35069;47.906;1.892;2024-01-16T04:29:50;27.52;;;15.63;;
49237;SDS011;35069;47.906;1.892;2024-01-16T04:32:16;29.23;;;14.52;;
49237;SDS011;35069;47.906;1.892;2024-01-16T04:34:42;30.20;;;16.23;;
49237;SDS011;35069;47.906;1.892;2024-01-16T04:37:08;27.63;;;16.10;;
49237;SDS011;35069;47.906;1.892;2024-01-16T04:39:33;24.70;;;15.88;;
49237;SDS011;35069;47.906;1.892;2024-01-16T04:41:59;30.02;;;16.30;;
49237;SDS011;35069;47.906;1.892;2024-01-16T04:44:25;24.92;;;16.70;;
49237;SDS011;35069;47.906;1.892;2024-01-16T04:46:50;36.35;;;18.17;;
49237;SDS011;35069;47.906;1.892;2024-01-16T04:49:16;32.60;;;18.15;;
49237;SDS011;35069;47.906;1.892;2024-01-16T04:51:41;33.88;;;18.60;;
49237;SDS011;35069;47.906;1.892;2024-01-16T04:54:07;33.78;;;18.65;;
49237;SDS011;35069;47.906;1.892;2024-01-16T04:56:32;35.72;;;19.45;;
49237;SDS011;35069;47.906;1.892;2024-01-16T04:58:58;35.45;;;19.52;;
49237;SDS011;35069;47.906;1.892;2024-01-16T05:01:24;37.15;;;20.73;;
49237;SDS011;35069;47.906;1.892;2024-01-16T05:03:50;33.53;;;18.88;;
49237;SDS011;35069;47.906;1.892;2024-01-16T05:06:15;33.28;;;19.88;;
49237;SDS011;35069;47.906;1.892;2024-01-16T05:08:42;34.72;;;21.40;;
49237;SDS011;35069;47.906;1.892;2024-01-16T05:11:08;35.47;;;18.88;;
49237;SDS011;35069;47.906;1.892;2024-01-16T05:13:34;39.13;;;21.77;;
49237;SDS011;35069;47.906;1.892;2024-01-16T05:15:59;36.20;;;21.33;;
49237;SDS011;35069;47.906;1.892;2024-01-16T05:18:25;35.80;;;20.23;;
49237;SDS011;35069;47.906;1.892;2024-01-16T05:20:51;37.50;;;22.42;;
49237;SDS011;35069;47.906;1.892;2024-01-16T05:23:16;40.60;;;21.92;;
49237;SDS011;35069;47.906;1.892;2024-01-16T05:25:43;36.75;;;22.25;;
49237;SDS011;35069;47.906;1.892;2024-01-16T05:28:08;34.50;;;21.08;;
49237;SDS011;35069;47.906;1.892;2024-01-16T05:30:34;37.03;;;22.40;;
49237;SDS011;35069;47.906;1.892;2024-01-16T05:33:00;38.97;;;21.65;;
49237;SDS011;35069;47.906;1.892;2024-01-16T05:35:28;35.67;;;22.70;;
49237;SDS011;35069;47.906;1.892;2024-01-16T05:37:54;38.35;;;21.23;;
49237;SDS011;35069;47.906;1.892;2024-01-16T05:40:20;38.15;;;19.95;;
49237;SDS011;35069;47.906;1.892;2024-01-16T05:42:47;36.55;;;21.67;;
49237;SDS011;35069;47.906;1.892;2024-01-16T05:45:16;38.38;;;22.02;;
49237;SDS011;35069;47.906;1.892;2024-01-16T05:47:42;42.88;;;22.40;;
49237;SDS011;35069;47.906;1.892;2024-01-16T05:50:08;39.85;;;22.20;;
49237;SDS011;35069;47.906;1.892;2024-01-16T05:52:34;39.05;;;22.23;;
49237;SDS011;35069;47.906;1.892;2024-01-16T05:55:00;35.20;;;20.00;;
49237;SDS011;35069;47.906;1.892;2024-01-16T05:57:27;37.92;;;19.73;;
49237;SDS011;35069;47.906;1.892;2024-01-16T05:59:56;34.45;;;20.02;;
49237;SDS011;35069;47.906;1.892;2024-01-16T06:02:22;41.63;;;22.23;;
49237;SDS011;35069;47.906;1.892;2024-01-16T06:04:48;35.42;;;22.13;;
49237;SDS011;35069;47.906;1.892;2024-01-16T06:07:13;36.45;;;19.38;;
49237;SDS011;35069;47.906;1.892;2024-01-16T06:09:39;34.15;;;19.60;;
49237;SDS011;35069;47.906;1.892;2024-01-16T06:12:05;36.45;;;20.63;;
49237;SDS011;35069;47.906;1.892;2024-01-16T06:14:32;35.33;;;20.27;;
49237;SDS011;35069;47.906;1.892;2024-01-16T06:16:58;36.22;;;19.60;;
49237;SDS011;35069;47.906;1.892;2024-01-16T06:19:23;37.10;;;21.38;;
49237;SDS011;35069;47.906;1.892;2024-01-16T06:21:49;42.47;;;20.83;;
49237;SDS011;35069;47.906;1.892;2024-01-16T06:24:15;35.33;;;20.45;;
49237;SDS011;35069;47.906;1.892;2024-01-16T06:26:40;33.03;;;18.77;;
49237;SDS011;35069;47.906;1.892;2024-01-16T06:29:07;34.58;;;20.73;;
49237;SDS011;35069;47.906;1.892;2024-01-16T06:31:33;32.38;;;19.33;;
49237;SDS011;35069;47.906;1.892;2024-01-16T06:33:58;30.10;;;18.67;;
49237;SDS011;35069;47.906;1.892;2024-01-16T06:36:24;36.53;;;19.60;;
49237;SDS011;35069;47.906;1.892;2024-01-16T06:38:49;34.50;;;19.77;;
49237;SDS011;35069;47.906;1.892;2024-01-16T06:41:15;31.67;;;19.42;;
49237;SDS011;35069;47.906;1.892;2024-01-16T06:43:41;34.15;;;19.75;;
49237;SDS011;35069;47.906;1.892;2024-01-16T06:46:06;39.85;;;19.00;;
49237;SDS011;35069;47.906;1.892;2024-01-16T06:48:32;39.08;;;20.15;;
49237;SDS011;35069;47.906;1.892;2024-01-16T06:50:59;36.22;;;19.83;;
49237;SDS011;35069;47.906;1.892;2024-01-16T06:53:26;29.77;;;19.15;;
49237;SDS011;35069;47.906;1.892;2024-01-16T06:55:51;30.58;;;18.13;;
49237;SDS011;35069;47.906;1.892;2024-01-16T06:58:17;35.63;;;19.48;;
49237;SDS011;35069;47.906;1.892;2024-01-16T07:00:42;29.95;;;19.13;;
49237;SDS011;35069;47.906;1.892;2024-01-16T07:03:08;35.15;;;19.02;;
49237;SDS011;35069;47.906;1.892;2024-01-16T07:05:34;36.05;;;19.90;;
49237;SDS011;35069;47.906;1.892;2024-01-16T07:08:03;30.42;;;17.48;;
49237;SDS011;35069;47.906;1.892;2024-01-16T07:10:28;32.15;;;17.13;;
49237;SDS011;35069;47.906;1.892;2024-01-16T07:12:54;37.28;;;18.67;;
49237;SDS011;35069;47.906;1.892;2024-01-16T07:15:21;31.90;;;18.63;;
49237;SDS011;35069;47.906;1.892;2024-01-16T07:17:46;34.05;;;17.60;;
49237;SDS011;35069;47.906;1.892;2024-01-16T07:20:12;32.20;;;18.80;;
49237;SDS011;35069;47.906;1.892;2024-01-16T07:22:38;38.42;;;20.02;;
49237;SDS011;35069;47.906;1.892;2024-01-16T07:25:07;36.45;;;18.73;;
49237;SDS011;35069;47.906;1.892;2024-01-16T07:27:33;35.38;;;21.08;;
49237;SDS011;35069;47.906;1.892;2024-01-16T07:29:59;38.08;;;19.45;;
49237;SDS011;35069;47.906;1.892;2024-01-16T07:32:25;39.75;;;18.48;;
49237;SDS011;35069;47.906;1.892;2024-01-16T07:34:51;38.40;;;20.02;;
49237;SDS011;35069;47.906;1.892;2024-01-16T07:37:19;35.92;;;18.42;;
49237;SDS011;35069;47.906;1.892;2024-01-16T07:39:44;35.15;;;17.02;;
49237;SDS011;35069;47.906;1.892;2024-01-16T07:42:10;31.10;;;16.50;;
49237;SDS011;35069;47.906;1.892;2024-01-16T07:44:36;30.73;;;16.15;;
49237;SDS011;35069;47.906;1.892;2024-01-16T07:47:02;34.70;;;19.63;;
49237;SDS011;35069;47.906;1.892;2024-01-16T07:49:28;26.40;;;16.00;;
49237;SDS011;35069;47.906;1.892;2024-01-16T07:51:54;38.50;;;18.58;;
49237;SDS011;35069;47.906;1.892;2024-01-16T07:54:20;28.45;;;16.70;;
49237;SDS011;35069;47.906;1.892;2024-01-16T07:56:49;31.25;;;17.50;;
49237;SDS011;35069;47.906;1.892;2024-01-16T07:59:14;36.42;;;17.52;;
49237;SDS011;35069;47.906;1.892;2024-01-16T08:01:40;34.42;;;17.05;;
49237;SDS011;35069;47.906;1.892;2024-01-16T08:04:06;36.00;;;17.27;;
49237;SDS011;35069;47.906;1.892;2024-01-16T08:06:31;26.92;;;16.52;;
49237;SDS011;35069;47.906;1.892;2024-01-16T08:08:57;29.35;;;16.92;;
49237;SDS011;35069;47.906;1.892;2024-01-16T08:11:23;37.13;;;18.33;;
49237;SDS011;35069;47.906;1.892;2024-01-16T08:13:48;34.13;;;18.73;;
49237;SDS011;35069;47.906;1.892;2024-01-16T08:16:14;36.80;;;18.67;;
49237;SDS011;35069;47.906;1.892;2024-01-16T08:18:40;28.75;;;18.55;;
49237;SDS011;35069;47.906;1.892;2024-01-16T08:21:05;29.90;;;16.50;;
49237;SDS011;35069;47.906;1.892;2024-01-16T08:23:32;39.38;;;18.50;;
49237;SDS011;35069;47.906;1.892;2024-01-16T08:25:59;37.55;;;20.95;;
49237;SDS011;35069;47.906;1.892;2024-01-16T08:28:25;41.90;;;21.95;;
49237;SDS011;35069;47.906;1.892;2024-01-16T08:30:51;41.13;;;21.52;;
49237;SDS011;35069;47.906;1.892;2024-01-16T08:33:17;39.85;;;22.42;;
49237;SDS011;35069;47.906;1.892;2024-01-16T08:35:43;39.33;;;22.10;;
49237;SDS011;35069;47.906;1.892;2024-01-16T08:38:09;47.20;;;24.15;;
49237;SDS011;35069;47.906;1.892;2024-01-16T08:40:34;43.60;;;23.55;;
49237;SDS011;35069;47.906;1.892;2024-01-16T08:43:00;35.92;;;21.27;;
49237;SDS011;35069;47.906;1.892;2024-01-16T08:45:26;47.42;;;22.00;;
49237;SDS011;35069;47.906;1.892;2024-01-16T08:47:51;35.63;;;21.38;;
49237;SDS011;35069;47.906;1.892;2024-01-16T08:50:17;40.78;;;18.95;;
49237;SDS011;35069;47.906;1.892;2024-01-16T08:52:43;33.20;;;19.33;;
49237;SDS011;35069;47.906;1.892;2024-01-16T08:55:08;37.75;;;19.52;;
49237;SDS011;35069;47.906;1.892;2024-01-16T08:57:34;37.63;;;21.48;;
49237;SDS011;35069;47.906;1.892;2024-01-16T09:00:02;32.15;;;19.23;;
49237;SDS011;35069;47.906;1.892;2024-01-16T09:02:31;37.38;;;19.95;;
49237;SDS011;35069;47.906;1.892;2024-01-16T09:04:57;40.90;;;19.48;;
49237;SDS011;35069;47.906;1.892;2024-01-16T09:07:23;37.42;;;19.33;;
49237;SDS011;35069;47.906;1.892;2024-01-16T09:09:49;40.53;;;20.38;;
49237;SDS011;35069;47.906;1.892;2024-01-16T09:12:15;32.53;;;17.42;;
49237;SDS011;35069;47.906;1.892;2024-01-16T09:14:42;29.88;;;17.80;;
49237;SDS011;35069;47.906;1.892;2024-01-16T09:17:08;43.92;;;18.23;;
49237;SDS011;35069;47.906;1.892;2024-01-16T09:19:33;30.85;;;19.02;;
49237;SDS011;35069;47.906;1.892;2024-01-16T09:21:59;35.13;;;17.23;;
49237;SDS011;35069;47.906;1.892;2024-01-16T09:24:24;31.67;;;18.92;;
49237;SDS011;35069;47.906;1.892;2024-01-16T09:26:50;34.78;;;17.30;;
49237;SDS011;35069;47.906;1.892;2024-01-16T09:29:15;33.42;;;19.20;;
49237;SDS011;35069;47.906;1.892;2024-01-16T09:31:41;33.28;;;20.13;;
49237;SDS011;35069;47.906;1.892;2024-01-16T09:34:07;33.20;;;17.88;;
49237;SDS011;35069;47.906;1.892;2024-01-16T09:36:33;39.10;;;19.33;;
49237;SDS011;35069;47.906;1.892;2024-01-16T09:39:02;41.65;;;19.05;;
49237;SDS011;35069;47.906;1.892;2024-01-16T09:41:44;39.15;;;19.50;;
49237;SDS011;35069;47.906;1.892;2024-01-16T09:44:09;35.85;;;20.95;;
49237;SDS011;35069;47.906;1.892;2024-01-16T09:46:37;42.58;;;23.35;;
49237;SDS011;35069;47.906;1.892;2024-01-16T09:49:03;34.75;;;20.23;;
49237;SDS011;35069;47.906;1.892;2024-01-16T09:51:29;39.10;;;22.20;;
49237;SDS011;35069;47.906;1.892;2024-01-16T09:53:55;42.78;;;23.15;;
49237;SDS011;35069;47.906;1.892;2024-01-16T09:56:21;40.55;;;22.98;;
49237;SDS011;35069;47.906;1.892;2024-01-16T09:58:49;44.67;;;24.15;;
49237;SDS011;35069;47.906;1.892;2024-01-16T10:01:19;38.00;;;19.65;;
49237;SDS011;35069;47.906;1.892;2024-01-16T10:03:46;31.23;;;18.60;;
49237;SDS011;35069;47.906;1.892;2024-01-16T10:06:12;37.58;;;21.55;;
49237;SDS011;35069;47.906;1.892;2024-01-16T10:08:40;37.20;;;19.27;;
49237;SDS011;35069;47.906;1.892;2024-01-16T10:11:06;34.33;;;20.88;;
49237;SDS011;35069;47.906;1.892;2024-01-16T10:13:32;35.13;;;18.80;;
49237;SDS011;35069;47.906;1.892;2024-01-16T10:15:58;33.38;;;19.80;;
49237;SDS011;35069;47.906;1.892;2024-01-16T10:18:25;30.58;;;19.17;;
49237;SDS011;35069;47.906;1.892;2024-01-16T10:20:51;38.58;;;19.27;;
49237;SDS011;35069;47.906;1.892;2024-01-16T10:23:28;29.55;;;16.80;;
49237;SDS011;35069;47.906;1.892;2024-01-16T10:28:36;28.70;;;17.08;;
49237;SDS011;35069;47.906;1.892;2024-01-16T10:31:04;23.65;;;15.68;;
49237;SDS011;35069;47.906;1.892;2024-01-16T10:33:30;31.05;;;16.33;;
49237;SDS011;35069;47.906;1.892;2024-01-16T10:36:17;27.10;;;16.73;;
49237;SDS011;35069;47.906;1.892;2024-01-16T10:38:45;30.45;;;16.10;;
49237;SDS011;35069;47.906;1.892;2024-01-16T10:43:40;22.35;;;14.20;;
49237;SDS011;35069;47.906;1.892;2024-01-16T10:46:07;25.73;;;13.45;;
49237;SDS011;35069;47.906;1.892;2024-01-16T10:48:35;21.85;;;12.25;;
49237;SDS011;35069;47.906;1.892;2024-01-16T10:51:01;20.95;;;12.55;;
49237;SDS011;35069;47.906;1.892;2024-01-16T10:53:27;21.20;;;11.75;;
49237;SDS011;35069;47.906;1.892;2024-01-16T10:55:57;18.95;;;11.88;;
49237;SDS011;35069;47.906;1.892;2024-01-16T10:58:26;23.10;;;13.32;;
49237;SDS011;35069;47.906;1.892;2024-01-16T11:00:53;22.75;;;11.50;;
49237;SDS011;35069;47.906;1.892;2024-01-16T11:03:22;17.92;;;10.30;;
49237;SDS011;35069;47.906;1.892;2024-01-16T11:05:53;18.33;;;9.32;;
49237;SDS011;35069;47.906;1.892;2024-01-16T11:08:19;15.25;;;9.60;;
49237;SDS011;35069;47.906;1.892;2024-01-16T11:10:45;16.75;;;9.55;;
49237;SDS011;35069;47.906;1.892;2024-01-16T11:13:14;16.70;;;9.40;;
49237;SDS011;35069;47.906;1.892;2024-01-16T11:15:41;18.23;;;10.52;;
49237;SDS011;35069;47.906;1.892;2024-01-16T11:18:07;19.52;;;9.63;;
49237;SDS011;35069;47.906;1.892;2024-01-16T11:20:34;11.57;;;8.68;;
49237;SDS011;35069;47.906;1.892;2024-01-16T11:23:00;16.42;;;9.32;;
49237;SDS011;35069;47.906;1.892;2024-01-16T11:25:33;13.50;;;9.65;;
49237;SDS011;35069;47.906;1.892;2024-01-16T11:28:14;15.32;;;10.70;;
49237;SDS011;35069;47.906;1.892;2024-01-16T11:30:41;17.88;;;9.63;;
49237;SDS011;35069;47.906;1.892;2024-01-16T11:36:06;21.58;;;11.98;;
49237;SDS011;35069;47.906;1.892;2024-01-16T11:39:16;17.33;;;10.10;;
49237;SDS011;35069;47.906;1.892;2024-01-16T11:41:50;13.20;;;9.02;;
49237;SDS011;35069;47.906;1.892;2024-01-16T11:47:18;10.85;;;7.63;;
49237;SDS011;35069;47.906;1.892;2024-01-16T11:49:45;15.00;;;8.63;;
49237;SDS011;35069;47.906;1.892;2024-01-16T11:52:43;13.25;;;8.05;;
49237;SDS011;35069;47.906;1.892;2024-01-16T11:55:28;15.55;;;7.80;;
49237;SDS011;35069;47.906;1.892;2024-01-16T12:00:33;16.83;;;7.93;;
49237;SDS011;35069;47.906;1.892;2024-01-16T12:03:02;15.38;;;7.05;;
49237;SDS011;35069;47.906;1.892;2024-01-16T12:05:29;11.48;;;6.15;;
49237;SDS011;35069;47.906;1.892;2024-01-16T12:07:54;21.00;;;6.60;;
49237;SDS011;35069;47.906;1.892;2024-01-16T12:10:21;13.52;;;6.95;;
49237;SDS011;35069;47.906;1.892;2024-01-16T12:12:48;11.50;;;7.18;;
49237;SDS011;35069;47.906;1.892;2024-01-16T12:15:20;11.38;;;5.30;;
49237;SDS011;35069;47.906;1.892;2024-01-16T12:20:19;9.00;;;5.15;;
49237;SDS011;35069;47.906;1.892;2024-01-16T12:22:51;9.35;;;5.22;;
49237;SDS011;35069;47.906;1.892;2024-01-16T12:25:28;6.95;;;4.47;;
49237;SDS011;35069;47.906;1.892;2024-01-16T12:27:55;7.60;;;5.20;;
49237;SDS011;35069;47.906;1.892;2024-01-16T12:30:29;7.85;;;5.25;;
49237;SDS011;35069;47.906;1.892;2024-01-16T12:33:02;7.03;;;4.53;;
49237;SDS011;35069;47.906;1.892;2024-01-16T12:35:32;7.03;;;4.45;;
49237;SDS011;35069;47.906;1.892;2024-01-16T12:38:02;9.48;;;6.00;;
49237;SDS011;35069;47.906;1.892;2024-01-16T12:40:30;8.73;;;5.38;;
49237;SDS011;35069;47.906;1.892;2024-01-16T12:42:57;5.85;;;4.50;;
49237;SDS011;35069;47.906;1.892;2024-01-16T12:45:23;7.68;;;4.70;;
49237;SDS011;35069;47.906;1.892;2024-01-16T12:47:52;9.48;;;4.20;;
49237;SDS011;35069;47.906;1.892;2024-01-16T12:50:19;6.28;;;4.50;;
49237;SDS011;35069;47.906;1.892;2024-01-16T12:53:00;11.73;;;5.78;;
49237;SDS011;35069;47.906;1.892;2024-01-16T12:55:36;8.15;;;5.10;;
49237;SDS011;35069;47.906;1.892;2024-01-16T13:00:52;9.90;;;5.20;;
49237;SDS011;35069;47.906;1.892;2024-01-16T13:03:22;6.75;;;4.97;;
49237;SDS011;35069;47.906;1.892;2024-01-16T13:05:55;9.05;;;6.22;;
49237;SDS011;35069;47.906;1.892;2024-01-16T13:08:23;8.25;;;4.50;;
49237;SDS011;35069;47.906;1.892;2024-01-16T13:11:08;8.10;;;4.40;;
49237;SDS011;35069;47.906;1.892;2024-01-16T13:13:34;8.73;;;4.80;;
49237;SDS011;35069;47.906;1.892;2024-01-16T13:16:02;7.13;;;4.72;;
49237;SDS011;35069;47.906;1.892;2024-01-16T13:18:32;12.88;;;6.40;;
49237;SDS011;35069;47.906;1.892;2024-01-16T13:20:58;9.25;;;5.47;;
49237;SDS011;35069;47.906;1.892;2024-01-16T13:23:24;7.82;;;5.47;;
49237;SDS011;35069;47.906;1.892;2024-01-16T13:25:51;11.10;;;5.82;;
49237;SDS011;35069;47.906;1.892;2024-01-16T13:28:17;7.90;;;5.22;;
49237;SDS011;35069;47.906;1.892;2024-01-16T13:30:44;7.32;;;5.40;;
49237;SDS011;35069;47.906;1.892;2024-01-16T13:33:11;10.20;;;3.97;;
49237;SDS011;35069;47.906;1.892;2024-01-16T13:35:38;6.68;;;4.47;;
49237;SDS011;35069;47.906;1.892;2024-01-16T13:38:06;5.97;;;3.70;;
49237;SDS011;35069;47.906;1.892;2024-01-16T13:40:33;8.32;;;5.60;;
49237;SDS011;35069;47.906;1.892;2024-01-16T13:43:00;9.07;;;4.68;;
49237;SDS011;35069;47.906;1.892;2024-01-16T13:45:26;6.75;;;4.35;;
49237;SDS011;35069;47.906;1.892;2024-01-16T13:47:53;10.30;;;5.05;;
49237;SDS011;35069;47.906;1.892;2024-01-16T13:50:19;14.38;;;4.38;;
49237;SDS011;35069;47.906;1.892;2024-01-16T13:52:45;8.73;;;5.22;;
49237;SDS011;35069;47.906;1.892;2024-01-16T13:55:11;8.02;;;4.20;;
49237;SDS011;35069;47.906;1.892;2024-01-16T13:57:37;6.28;;;4.40;;
49237;SDS011;35069;47.906;1.892;2024-01-16T14:00:03;7.60;;;4.22;;
49237;SDS011;35069;47.906;1.892;2024-01-16T14:02:30;8.60;;;3.97;;
49237;SDS011;35069;47.906;1.892;2024-01-16T14:04:55;7.10;;;4.32;;
49237;SDS011;35069;47.906;1.892;2024-01-16T14:07:21;5.60;;;2.92;;
49237;SDS011;35069;47.906;1.892;2024-01-16T14:09:47;5.32;;;3.33;;
49237;SDS011;35069;47.906;1.892;2024-01-16T14:12:13;4.80;;;3.35;;
49237;SDS011;35069;47.906;1.892;2024-01-16T14:14:39;6.25;;;3.10;;
49237;SDS011;35069;47.906;1.892;2024-01-16T14:17:06;10.15;;;3.67;;
49237;SDS011;35069;47.906;1.892;2024-01-16T14:19:31;5.05;;;3.13;;
49237;SDS011;35069;47.906;1.892;2024-01-16T14:22:00;6.05;;;3.38;;
49237;SDS011;35069;47.906;1.892;2024-01-16T14:24:25;4.53;;;3.13;;
49237;SDS011;35069;47.906;1.892;2024-01-16T14:26:51;5.22;;;3.25;;
49237;SDS011;35069;47.906;1.892;2024-01-16T14:29:17;10.50;;;4.40;;
49237;SDS011;35069;47.906;1.892;2024-01-16T14:31:43;7.70;;;4.55;;
49237;SDS011;35069;47.906;1.892;2024-01-16T14:34:12;6.90;;;4.28;;
49237;SDS011;35069;47.906;1.892;2024-01-16T14:36:39;6.15;;;4.03;;
49237;SDS011;35069;47.906;1.892;2024-01-16T14:39:05;5.95;;;4.45;;
49237;SDS011;35069;47.906;1.892;2024-01-16T14:41:31;6.03;;;3.90;;